Time;durP1;ratioP1;P1;durP2;ratioP2;P2;SDS_P1;SDS_P2;PMS_P1;PMS_P2;Temp;Humidity;BMP_temperature;BMP_pressure;BME280_temperature;BME280_humidity;BME280_pressure;Samples;Min_cycle;Max_cycle;Signal;HPM_P1;HPM_P2
2023/03/13 00:00:34;;;;;;;6.75;1.80;;;;;;;4.06;100.00;95208.22;5093227;28;20039;-72
2023/03/13 00:03:15;;;;;;;2.03;1.27;;;;;;;3.98;100.00;95201.59;5095129;28;20055;-72
2023/03/13 00:05:40;;;;;;;3.22;1.45;;;;;;;3.98;100.00;95201.59;5091478;28;20040;-72
2023/03/13 00:08:06;;;;;;;3.85;1.55;;;;;;;3.85;100.00;95191.47;5095483;28;20043;-72
2023/03/13 00:10:32;;;;;;;4.68;1.50;;;;;;;3.79;100.00;95192.38;5093308;28;20040;-72
2023/03/13 00:12:57;;;;;;;3.83;1.58;;;;;;;3.74;100.00;95174.09;5087654;28;20111;-72
2023/03/13 00:15:23;;;;;;;1.85;1.27;;;;;;;3.72;100.00;95176.13;5092319;28;20097;-72
2023/03/13 00:17:48;;;;;;;2.60;1.08;;;;;;;3.67;100.00;95173.44;5094484;28;20089;-72
2023/03/13 00:20:16;;;;;;;2.78;1.70;;;;;;;3.65;100.00;95173.69;5092522;28;20075;-72
2023/03/13 00:22:42;;;;;;;2.35;1.50;;;;;;;3.73;100.00;95169.91;5095126;28;20051;-72
2023/03/13 00:25:07;;;;;;;3.60;1.48;;;;;;;3.71;100.00;95169.38;5095615;28;20044;-72
2023/03/13 00:27:33;;;;;;;3.67;1.63;;;;;;;3.54;100.00;95164.91;5092235;28;20036;-72
2023/03/13 00:29:59;;;;;;;1.88;1.40;;;;;;;3.41;100.00;95159.97;5093603;28;20496;-72
2023/03/13 00:32:25;;;;;;;2.97;1.70;;;;;;;3.31;100.00;95165.78;5084330;28;20050;-72
2023/03/13 00:34:50;;;;;;;5.60;1.77;;;;;;;3.26;100.00;95158.69;5096002;28;20040;-72
2023/03/13 00:37:16;;;;;;;6.78;1.90;;;;;;;3.18;100.00;95151.22;5092337;28;20539;-72
2023/03/13 00:39:41;;;;;;;3.20;1.55;;;;;;;3.14;100.00;95149.34;5093252;28;20040;-72
2023/03/13 00:42:07;;;;;;;4.22;1.50;;;;;;;3.08;100.00;95140.66;5093909;28;20043;-72
2023/03/13 00:44:33;;;;;;;3.53;1.60;;;;;;;3.01;100.00;95139.97;5094581;28;20040;-72
2023/03/13 00:46:58;;;;;;;3.42;1.58;;;;;;;2.85;100.00;95131.09;5091361;28;20040;-71
2023/03/13 00:49:24;;;;;;;2.45;1.63;;;;;;;2.73;100.00;95129.31;5094708;28;20511;-71
2023/03/13 00:51:49;;;;;;;3.53;1.70;;;;;;;2.78;100.00;95131.22;5092099;28;20040;-71
2023/03/13 00:54:15;;;;;;;2.88;1.52;;;;;;;2.63;100.00;95129.09;5097638;28;20043;-72
2023/03/13 00:56:40;;;;;;;4.53;1.50;;;;;;;2.53;100.00;95129.66;5089386;28;20082;-72
2023/03/13 00:59:06;;;;;;;4.57;1.73;;;;;;;2.41;100.00;95123.69;5096548;28;20051;-72
2023/03/13 01:01:34;;;;;;;1.95;1.38;;;;;;;2.27;100.00;95124.94;5088416;28;20032;-72
2023/03/13 01:04:05;;;;;;;2.90;1.48;;;;;;;2.22;100.00;95129.00;5093768;28;20050;-73
2023/03/13 01:06:33;;;;;;;2.97;1.70;;;;;;;2.06;100.00;95129.69;5082279;28;20464;-72
2023/03/13 01:08:59;;;;;;;3.10;1.65;;;;;;;1.95;100.00;95122.66;5089362;28;20078;-72
2023/03/13 01:11:27;;;;;;;4.85;1.60;;;;;;;1.89;100.00;95119.94;5082095;28;20040;-73
2023/03/13 01:13:55;;;;;;;4.18;1.73;;;;;;;1.85;100.00;95113.63;5087574;28;20044;-72
2023/03/13 01:16:22;;;;;;;3.55;1.80;;;;;;;1.84;100.00;95112.06;5088842;28;20105;-72
2023/03/13 01:18:50;;;;;;;4.28;1.80;;;;;;;1.67;100.00;95095.56;5091633;28;20044;-72
2023/03/13 01:21:20;;;;;;;5.57;1.80;;;;;;;1.67;100.00;95111.13;5084346;28;20043;-72
2023/03/13 01:23:47;;;;;;;3.58;1.80;;;;;;;1.56;100.00;95105.66;5092625;28;20043;-72
2023/03/13 01:26:12;;;;;;;2.35;1.50;;;;;;;1.54;100.00;95102.50;5088081;28;20106;-72
2023/03/13 01:28:38;;;;;;;4.70;1.40;;;;;;;1.47;100.00;95101.81;5086749;28;20056;-72
2023/03/13 01:31:10;;;;;;;2.78;1.45;;;;;;;1.50;100.00;95093.59;5086418;28;20055;-72
2023/03/13 01:33:35;;;;;;;4.78;1.70;;;;;;;1.37;100.00;95096.38;5087208;28;20040;-72
2023/03/13 01:36:02;;;;;;;5.40;1.70;;;;;;;1.39;100.00;95094.34;5090888;28;20044;-72
2023/03/13 01:38:28;;;;;;;5.82;1.85;;;;;;;1.33;100.00;95100.44;5092553;28;20063;-72
2023/03/13 01:40:53;;;;;;;4.28;1.83;;;;;;;1.28;100.00;95087.31;5094447;28;20062;-72
2023/03/13 01:43:25;;;;;;;1.95;1.45;;;;;;;1.29;100.00;95088.91;5091282;28;20098;-72
2023/03/13 01:46:00;;;;;;;3.50;1.50;;;;;;;1.27;100.00;95085.75;5090260;28;20081;-72
2023/03/13 01:48:41;;;;;;;2.92;1.58;;;;;;;1.24;100.00;95086.22;5083410;28;20132;-71
2023/03/13 01:51:11;;;;;;;2.33;1.38;;;;;;;1.25;100.00;95074.81;5087874;28;20047;-71
2023/03/13 01:53:41;;;;;;;2.97;1.60;;;;;;;1.43;100.00;95089.53;5090962;28;20036;-72
2023/03/13 01:56:17;;;;;;;2.35;1.30;;;;;;;1.14;100.00;95087.50;5093265;28;20387;-71
2023/03/13 01:58:44;;;;;;;4.05;1.63;;;;;;;1.11;100.00;95082.00;5080967;28;20048;-71
2023/03/13 02:01:11;;;;;;;3.78;1.70;;;;;;;0.98;100.00;95082.97;5088982;28;20043;-71
2023/03/13 02:03:37;;;;;;;3.38;1.45;;;;;;;0.97;100.00;95076.19;5089507;28;20084;-72
2023/03/13 02:06:05;;;;;;;2.20;1.50;;;;;;;0.91;100.00;95074.47;5091058;28;20434;-71
2023/03/13 02:08:36;;;;;;;3.40;1.45;;;;;;;0.82;100.00;95069.59;5086674;28;20105;-72
2023/03/13 02:11:04;;;;;;;2.15;1.45;;;;;;;0.87;100.00;95071.53;5093909;28;20453;-71
2023/03/13 02:13:30;;;;;;;2.88;1.65;;;;;;;0.83;100.00;95066.00;5081572;28;20036;-72
2023/03/13 02:15:56;;;;;;;2.60;1.40;;;;;;;0.79;100.00;95064.84;5089583;28;20050;-72
2023/03/13 02:18:22;;;;;;;3.25;1.60;;;;;;;0.70;100.00;95063.56;5087951;28;20040;-72
2023/03/13 02:20:52;;;;;;;4.00;1.73;;;;;;;0.77;100.00;95059.09;5086283;28;20063;-72
2023/03/13 02:23:20;;;;;;;2.40;1.50;;;;;;;0.68;100.00;95057.81;5086547;28;20461;-72
2023/03/13 02:25:48;;;;;;;3.63;1.73;;;;;;;0.73;100.00;95054.56;5095987;28;20491;-71
2023/03/13 02:28:19;;;;;;;2.60;1.42;;;;;;;0.78;100.00;95050.31;5090530;28;20525;-72
2023/03/13 02:30:48;;;;;;;1.80;1.35;;;;;;;0.74;100.00;95056.94;5087364;28;20036;-72
2023/03/13 02:33:14;;;;;;;9.02;1.63;;;;;;;1.38;100.00;95061.69;5079388;28;20498;-72
2023/03/13 02:35:43;;;;;;;2.45;1.15;;;;;;;1.40;100.00;95048.50;5089289;28;20522;-72
2023/03/13 02:38:12;;;;;;;3.30;1.17;;;;;;;1.28;100.00;95057.03;5091164;28;20457;-72
2023/03/13 02:40:42;;;;;;;5.10;1.50;;;;;;;1.17;100.00;95066.34;5086684;28;20101;-72
2023/03/13 02:43:14;;;;;;;2.88;1.40;;;;;;;1.08;100.00;95067.66;5086156;28;20040;-72
2023/03/13 02:45:40;;;;;;;3.38;1.38;;;;;;;1.01;100.00;95074.75;5089422;28;20492;-72
2023/03/13 02:48:05;;;;;;;4.15;1.38;;;;;;;1.01;100.00;95072.16;5088433;28;20097;-72
2023/03/13 02:50:33;;;;;;;3.00;1.30;;;;;;;1.09;100.00;95078.81;5086028;28;20759;-72
2023/03/13 02:53:06;;;;;;;2.53;1.10;;;;;;;1.21;100.00;95077.84;5088276;28;20050;-71
2023/03/13 02:55:38;;;;;;;1.40;1.17;;;;;;;1.15;100.00;95073.56;5089796;28;20028;-72
2023/03/13 02:58:04;;;;;;;2.47;1.52;;;;;;;1.09;100.00;95089.97;5087071;28;20118;-71
2023/03/13 03:00:29;;;;;;;2.05;1.17;;;;;;;0.99;100.00;95084.50;5081590;28;20518;-72
2023/03/13 03:02:55;;;;;;;2.38;1.38;;;;;;;0.94;100.00;95081.81;5088253;28;20044;-72
2023/03/13 03:05:21;;;;;;;2.33;1.40;;;;;;;1.04;100.00;95084.66;5082847;28;20044;-72
2023/03/13 03:07:47;;;;;;;3.28;1.45;;;;;;;1.16;100.00;95080.28;5088152;28;20032;-72
2023/03/13 03:10:14;;;;;;;1.98;1.23;;;;;;;1.26;100.00;95073.81;5089342;28;20032;-72
2023/03/13 03:12:39;;;;;;;5.75;1.27;;;;;;;1.44;100.00;95075.53;5089606;28;20470;-71
2023/03/13 03:15:06;;;;;;;1.65;1.13;;;;;;;1.60;100.00;95067.13;5088058;28;20150;-72
2023/03/13 03:17:32;;;;;;;1.65;1.08;;;;;;;1.73;100.00;95084.28;5087613;28;20036;-72
2023/03/13 03:19:58;;;;;;;2.65;1.15;;;;;;;1.85;100.00;95081.69;5092800;28;20052;-71
2023/03/13 03:22:23;;;;;;;1.98;1.25;;;;;;;1.96;100.00;95077.53;5090146;28;20036;-71
2023/03/13 03:24:49;;;;;;;3.45;1.42;;;;;;;2.03;100.00;95078.22;5090922;28;20036;-71
2023/03/13 03:27:14;;;;;;;1.35;0.90;;;;;;;2.11;100.00;95075.25;5087193;28;20044;-71
2023/03/13 03:29:40;;;;;;;1.02;0.93;;;;;;;2.22;100.00;95077.06;5093815;28;20032;-71
2023/03/13 03:32:06;;;;;;;1.23;0.90;;;;;;;2.23;100.00;95078.66;5090694;28;20040;-71
2023/03/13 03:34:31;;;;;;;1.75;1.13;;;;;;;2.33;100.00;95075.50;5093041;28;20048;-71
2023/03/13 03:36:57;;;;;;;2.55;0.90;;;;;;;2.39;100.00;95076.38;5091994;28;20102;-71
2023/03/13 03:39:23;;;;;;;2.30;0.90;;;;;;;2.43;100.00;95077.53;5095568;28;20051;-71
2023/03/13 03:41:49;;;;;;;0.98;0.80;;;;;;;2.36;100.00;95056.06;5091343;28;20032;-71
2023/03/13 03:44:14;;;;;;;1.17;0.85;;;;;;;2.46;100.00;95069.25;5086120;28;20071;-72
2023/03/13 03:46:40;;;;;;;1.73;1.10;;;;;;;2.41;100.00;95063.94;5093108;28;20039;-72
2023/03/13 03:49:05;;;;;;;1.13;0.90;;;;;;;2.43;100.00;95069.72;5092953;28;20486;-71
2023/03/13 03:51:31;;;;;;;1.33;0.98;;;;;;;2.48;100.00;95069.03;5090722;28;20117;-71
2023/03/13 03:53:57;;;;;;;2.58;1.20;;;;;;;2.46;100.00;95066.66;5094017;28;20051;-71
2023/03/13 03:56:22;;;;;;;2.08;1.10;;;;;;;2.41;100.00;95064.75;5092072;28;20113;-71
2023/03/13 03:58:48;;;;;;;0.77;0.68;;;;;;;2.46;100.00;95058.88;5089562;28;20032;-71
2023/03/13 04:01:13;;;;;;;1.48;0.80;;;;;;;2.51;100.00;95058.97;5090600;28;20051;-72
2023/03/13 04:03:39;;;;;;;0.93;0.80;;;;;;;2.49;100.00;95050.63;5087638;28;20498;-71
2023/03/13 04:06:05;;;;;;;1.17;0.80;;;;;;;2.55;100.00;95054.88;5095972;28;20044;-71
2023/03/13 04:08:32;;;;;;;1.13;0.80;;;;;;;2.59;100.00;95050.81;5089146;28;20101;-71
2023/03/13 04:10:59;;;;;;;0.70;0.60;;;;;;;2.56;100.00;95040.88;5094987;28;20491;-71
2023/03/13 04:13:25;;;;;;;2.00;1.17;;;;;;;2.65;100.00;95048.34;5091081;28;20086;-71
2023/03/13 04:15:50;;;;;;;1.05;0.88;;;;;;;2.64;100.00;95031.16;5091051;28;20032;-71
2023/03/13 04:18:16;;;;;;;0.80;0.70;;;;;;;2.66;100.00;95026.50;5089671;28;20036;-71
2023/03/13 04:20:41;;;;;;;2.20;0.90;;;;;;;2.77;100.00;95030.88;5091143;28;20036;-71
2023/03/13 04:23:07;;;;;;;0.90;0.90;;;;;;;2.84;100.00;95026.34;5086489;28;20427;-71
2023/03/13 04:25:32;;;;;;;1.38;0.82;;;;;;;2.78;100.00;95016.88;5091130;28;20667;-71
2023/03/13 04:27:58;;;;;;;1.15;0.75;;;;;;;2.78;100.00;95016.88;5095869;28;20050;-73
2023/03/13 04:30:24;;;;;;;2.80;1.20;;;;;;;2.78;100.00;95006.47;5088872;28;20028;-72
2023/03/13 04:32:49;;;;;;;0.85;0.82;;;;;;;2.80;100.00;95004.44;5091017;28;20467;-72
2023/03/13 04:35:15;;;;;;;2.03;1.10;;;;;;;2.81;100.00;94994.84;5089373;28;20061;-72
2023/03/13 04:37:41;;;;;;;1.65;1.17;;;;;;;2.75;100.00;94996.56;5092872;28;20043;-72
2023/03/13 04:40:08;;;;;;;1.65;1.10;;;;;;;2.73;100.00;94995.97;5089983;28;20044;-72
2023/03/13 04:42:33;;;;;;;2.80;0.90;;;;;;;2.76;100.00;94987.75;5089861;28;20414;-72
2023/03/13 04:44:59;;;;;;;1.65;1.25;;;;;;;2.73;100.00;94993.38;5091259;28;20036;-72
2023/03/13 04:47:24;;;;;;;2.95;1.20;;;;;;;2.73;100.00;94993.38;5091801;28;20035;-72
2023/03/13 04:49:50;;;;;;;2.33;1.20;;;;;;;2.69;100.00;94971.50;5089504;28;20036;-73
2023/03/13 04:52:16;;;;;;;1.45;1.10;;;;;;;2.82;100.00;94978.22;5095114;28;20047;-72
2023/03/13 04:54:41;;;;;;;1.85;1.38;;;;;;;2.82;100.00;94971.22;5091690;28;20036;-72
2023/03/13 04:57:07;;;;;;;2.30;1.23;;;;;;;2.85;100.00;94965.53;5089659;28;20047;-73
2023/03/13 04:59:32;;;;;;;1.20;0.90;;;;;;;2.83;100.00;94962.41;5090753;28;20419;-73
2023/03/13 05:01:58;;;;;;;1.70;0.80;;;;;;;2.87;100.00;94955.69;5093494;28;20142;-72
2023/03/13 05:04:23;;;;;;;1.10;0.95;;;;;;;2.94;100.00;94958.16;5085622;28;20032;-73
2023/03/13 05:06:49;;;;;;;2.70;1.10;;;;;;;3.01;100.00;94947.63;5094775;28;20082;-72
2023/03/13 05:09:15;;;;;;;2.60;0.85;;;;;;;2.99;100.00;94955.66;5093402;28;20054;-72
2023/03/13 05:11:41;;;;;;;2.38;1.15;;;;;;;2.90;100.00;94947.47;5089173;28;20040;-72
2023/03/13 05:14:09;;;;;;;1.48;1.05;;;;;;;2.93;100.00;94952.19;5088995;28;20453;-72
2023/03/13 05:16:35;;;;;;;1.67;1.27;;;;;;;2.89;100.00;94945.88;5090697;28;20043;-72
2023/03/13 05:19:01;;;;;;;1.13;0.88;;;;;;;2.89;100.00;94945.88;5097657;28;20457;-72
2023/03/13 05:21:27;;;;;;;1.98;1.00;;;;;;;2.90;100.00;94952.66;5088352;28;20040;-72
2023/03/13 05:23:52;;;;;;;0.85;0.85;;;;;;;2.95;100.00;94934.53;5090060;28;20043;-72
2023/03/13 05:26:18;;;;;;;2.03;1.40;;;;;;;2.93;100.00;94941.78;5092379;28;20091;-72
2023/03/13 05:28:43;;;;;;;2.20;1.42;;;;;;;3.02;100.00;94928.41;5091762;28;20043;-72
2023/03/13 05:31:09;;;;;;;1.63;1.08;;;;;;;3.00;100.00;94928.63;5105121;28;20051;-72
2023/03/13 05:33:34;;;;;;;1.80;1.27;;;;;;;3.06;100.00;94921.69;5113485;28;20091;-71
2023/03/13 05:36:00;;;;;;;2.30;1.00;;;;;;;3.13;100.00;94924.91;5122450;28;20027;-72
2023/03/13 05:38:25;;;;;;;4.15;1.33;;;;;;;3.23;100.00;94919.09;5115315;28;20054;-72
2023/03/13 05:40:51;;;;;;;1.33;0.90;;;;;;;3.22;100.00;94913.13;5110392;28;20181;-72
2023/03/13 05:43:16;;;;;;;3.22;1.42;;;;;;;3.24;100.00;94915.47;5114466;28;20123;-72
2023/03/13 05:45:42;;;;;;;5.63;1.40;;;;;;;3.27;100.00;94902.78;5115551;28;20053;-72
2023/03/13 05:48:07;;;;;;;1.73;1.10;;;;;;;3.31;100.00;94899.72;5115890;28;20060;-71
2023/03/13 05:50:33;;;;;;;2.33;1.48;;;;;;;3.37;100.00;94903.97;5111988;28;20027;-71
2023/03/13 05:52:59;;;;;;;1.52;1.23;;;;;;;3.44;100.00;94912.38;5115154;28;20106;-71
2023/03/13 05:55:24;;;;;;;3.28;1.60;;;;;;;3.43;100.00;94903.00;5115992;28;20036;-71
2023/03/13 05:57:50;;;;;;;2.58;1.10;;;;;;;3.58;100.00;94911.03;5101125;28;20078;-72
2023/03/13 06:00:16;;;;;;;1.27;1.15;;;;;;;3.64;100.00;94909.28;5086099;28;20131;-72
2023/03/13 06:02:42;;;;;;;1.20;1.10;;;;;;;3.80;100.00;94908.44;5089138;28;20487;-71
2023/03/13 06:05:09;;;;;;;5.55;1.40;;;;;;;3.88;100.00;94903.84;5085132;28;20048;-71
2023/03/13 06:07:35;;;;;;;2.03;1.08;;;;;;;3.86;100.00;94901.47;5091409;28;20048;-73
2023/03/13 06:10:01;;;;;;;2.92;1.25;;;;;;;3.94;100.00;94893.25;5088577;28;20047;-71
2023/03/13 06:12:26;;;;;;;1.98;1.33;;;;;;;3.94;100.00;94888.06;5085250;28;20427;-71
2023/03/13 06:14:52;;;;;;;3.42;1.48;;;;;;;4.04;100.00;94886.59;5085618;28;20498;-71
2023/03/13 06:17:17;;;;;;;1.88;1.00;;;;;;;3.97;100.00;94865.97;5092737;28;20039;-72
2023/03/13 06:19:45;;;;;;;2.15;1.35;;;;;;;4.03;100.00;94866.81;5087876;28;20044;-71
2023/03/13 06:22:10;;;;;;;2.25;1.20;;;;;;;3.97;100.00;94871.94;5089568;28;20518;-72
2023/03/13 06:24:36;;;;;;;2.13;1.35;;;;;;;3.97;100.00;94866.75;5089152;28;20036;-72
2023/03/13 06:27:02;;;;;;;3.72;1.55;;;;;;;4.26;100.00;94879.56;5092592;28;20040;-70
2023/03/13 06:29:27;;;;;;;1.65;1.20;;;;;;;4.40;100.00;94873.97;5089989;28;20132;-71
2023/03/13 06:31:53;;;;;;;1.88;1.20;;;;;;;4.40;100.00;94869.53;5077089;28;20058;-74
2023/03/13 06:34:19;;;;;;;1.27;1.00;;;;;;;4.49;100.00;94867.28;5086918;28;20051;-72
2023/03/13 06:36:44;;;;;;;1.38;1.08;;;;;;;4.46;100.00;94867.78;5088142;28;20109;-70
2023/03/13 06:39:11;;;;;;;1.75;1.08;;;;;;;4.57;100.00;94879.88;5088005;28;20055;-72
2023/03/13 06:41:36;;;;;;;2.10;1.33;;;;;;;4.79;100.00;94871.19;5087022;28;20045;-72
2023/03/13 06:44:03;;;;;;;1.67;1.10;;;;;;;4.86;100.00;94866.56;5079786;28;20110;-72
2023/03/13 06:46:30;;;;;;;2.25;1.17;;;;;;;4.93;100.00;94867.16;5087260;28;20040;-71
2023/03/13 06:48:57;;;;;;;2.25;1.50;;;;;;;4.91;100.00;94853.56;5090503;28;20036;-71
2023/03/13 06:51:25;;;;;;;6.10;1.38;;;;;;;4.99;100.00;94866.13;5084189;28;20054;-72
2023/03/13 06:53:51;;;;;;;3.15;1.50;;;;;;;5.00;100.00;94862.50;5091762;28;20036;-71
2023/03/13 06:56:17;;;;;;;3.45;1.30;;;;;;;5.14;100.00;94862.88;5096661;28;20047;-72
2023/03/13 06:58:46;;;;;;;3.22;1.35;;;;;;;5.33;100.00;94871.06;5087619;28;20036;-74
2023/03/13 07:01:13;;;;;;;2.75;1.38;;;;;;;5.32;100.00;94864.28;5090146;28;20085;-71
2023/03/13 07:03:42;;;;;;;4.82;1.40;;;;;;;5.44;100.00;94865.91;5096342;28;20036;-72
2023/03/13 07:06:09;;;;;;;3.60;1.35;;;;;;;5.52;100.00;94873.28;5096123;28;20104;-73
2023/03/13 07:08:36;;;;;;;4.28;1.50;;;;;;;5.57;100.00;94867.28;5092537;28;20036;-72
2023/03/13 07:11:07;;;;;;;2.67;1.17;;;;;;;5.65;100.00;94872.81;5096309;28;20150;-72
2023/03/13 07:13:33;;;;;;;2.75;1.15;;;;;;;5.68;100.00;94856.66;5093486;28;20043;-72
2023/03/13 07:16:03;;;;;;;2.60;0.80;;;;;;;5.81;100.00;94859.84;5096266;28;20055;-74
2023/03/13 07:18:30;;;;;;;3.00;1.00;;;;;;;5.85;100.00;94856.47;5083965;28;20043;-73
2023/03/13 07:20:57;;;;;;;1.77;1.00;;;;;;;6.01;100.00;94867.78;5088606;28;20055;-74
2023/03/13 07:23:25;;;;;;;1.77;1.00;;;;;;;6.14;100.00;94873.59;5092070;28;20506;-74
2023/03/13 07:25:53;;;;;;;1.20;1.10;;;;;;;6.13;100.00;94872.00;5095169;28;20040;-73
2023/03/13 07:28:19;;;;;;;1.52;1.10;;;;;;;6.30;100.00;94862.13;5097193;28;20067;-72
2023/03/13 07:30:44;;;;;;;3.08;0.90;;;;;;;6.37;100.00;94852.22;5089091;28;20043;-71
2023/03/13 07:33:10;;;;;;;1.48;1.00;;;;;;;6.29;100.00;94865.78;5091636;28;20052;-73
2023/03/13 07:35:36;;;;;;;1.50;1.08;;;;;;;6.41;100.00;94855.88;5086316;28;20090;-72
2023/03/13 07:38:01;;;;;;;2.03;1.30;;;;;;;6.54;100.00;94845.97;5087876;28;20040;-72
2023/03/13 07:40:27;;;;;;;2.45;1.20;;;;;;;6.67;100.00;94845.47;5091869;28;20534;-71
2023/03/13 07:42:52;;;;;;;1.50;1.00;;;;;;;6.64;100.00;94848.59;5090996;28;20044;-71
2023/03/13 07:45:18;;;;;;;2.85;1.02;;;;;;;6.72;100.00;94842.06;5092313;28;20048;-71
2023/03/13 07:47:43;;;;;;;1.52;0.90;;;;;;;6.76;100.00;94838.66;5099832;28;20046;-71
2023/03/13 07:50:09;;;;;;;2.28;0.90;;;;;;;6.83;100.00;94837.63;5093697;28;20055;-72
2023/03/13 07:52:35;;;;;;;3.33;0.93;;;;;;;6.89;100.00;94841.81;5087634;28;20062;-71
2023/03/13 07:55:01;;;;;;;1.63;1.10;;;;;;;6.98;100.00;94839.44;5093503;28;20048;-72
2023/03/13 07:57:26;;;;;;;1.55;0.85;;;;;;;6.96;100.00;94842.31;5089772;28;20042;-72
2023/03/13 07:59:52;;;;;;;1.50;0.98;;;;;;;6.99;100.00;94847.03;5091079;28;20119;-73
2023/03/13 08:02:17;;;;;;;2.70;0.90;;;;;;;7.05;100.00;94866.13;5087422;28;20490;-72
2023/03/13 08:04:43;;;;;;;1.08;0.90;;;;;;;7.16;100.00;94857.22;5083635;28;20039;-72
2023/03/13 08:07:10;;;;;;;1.85;1.17;;;;;;;7.25;100.00;94854.84;5088795;28;20040;-72
2023/03/13 08:09:35;;;;;;;1.20;0.90;;;;;;;7.42;100.00;94855.34;5097242;28;20093;-72
2023/03/13 08:12:01;;;;;;;1.92;0.85;;;;;;;7.53;100.00;94850.88;5086467;28;20044;-71
2023/03/13 08:14:27;;;;;;;1.02;0.77;;;;;;;7.79;100.00;94856.84;5097258;28;20044;-72
2023/03/13 08:16:53;;;;;;;1.25;1.00;;;;;;;8.02;100.00;94846.03;5102820;28;20039;-73
2023/03/13 08:19:18;;;;;;;1.83;0.85;;;;;;;8.04;100.00;94834.19;5091307;28;20048;-72
2023/03/13 08:21:44;;;;;;;0.68;0.65;;;;;;;8.34;100.00;94835.09;5090303;28;20059;-72
2023/03/13 08:24:11;;;;;;;1.88;0.98;;;;;;;8.43;100.00;94825.63;5099266;28;20033;-72
2023/03/13 08:26:39;;;;;;;1.50;0.90;;;;;;;8.60;100.00;94824.47;5088199;28;20040;-71
2023/03/13 08:29:08;;;;;;;2.17;0.57;;;;;;;8.71;100.00;94825.97;5082985;28;20068;-72
2023/03/13 08:31:42;;;;;;;1.10;0.88;;;;;;;8.65;100.00;94837.56;5086953;28;20043;-72
2023/03/13 08:34:07;;;;;;;3.10;1.10;;;;;;;8.43;100.00;94835.31;5088362;28;20431;-72
2023/03/13 08:36:35;;;;;;;0.82;0.65;;;;;;;8.43;100.00;94846.59;5092918;28;20048;-71
2023/03/13 08:39:04;;;;;;;1.23;0.70;;;;;;;8.18;100.00;94851.97;5092595;28;20081;-71
2023/03/13 08:41:34;;;;;;;1.20;0.90;;;;;;;7.97;100.00;94852.84;5081735;28;20047;-72
2023/03/13 08:44:01;;;;;;;1.13;0.88;;;;;;;7.92;100.00;94846.84;5084803;28;20077;-72
2023/03/13 08:46:29;;;;;;;0.93;0.70;;;;;;;7.88;100.00;94851.06;5090724;28;20427;-71
2023/03/13 08:48:55;;;;;;;1.55;1.02;;;;;;;7.88;100.00;94851.06;5091077;28;20384;-71
2023/03/13 08:51:23;;;;;;;1.42;0.93;;;;;;;8.01;100.00;94845.22;5090221;28;20055;-73
2023/03/13 08:53:50;;;;;;;1.17;1.00;;;;;;;8.00;100.00;94833.16;5092301;28;20044;-73
2023/03/13 08:56:18;;;;;;;1.13;0.80;;;;;;;8.10;100.00;94832.34;5092567;28;20047;-72
2023/03/13 08:58:43;;;;;;;1.08;0.90;;;;;;;8.30;100.00;94836.69;5088362;28;20411;-72
2023/03/13 09:01:11;;;;;;;0.93;0.82;;;;;;;8.57;100.00;94848.63;5088316;28;20056;-73
2023/03/13 09:03:38;;;;;;;1.38;0.80;;;;;;;8.70;100.00;94834.13;5086092;28;20032;-73
2023/03/13 09:06:04;;;;;;;8.27;2.08;;;;;;;9.02;100.00;94836.22;5088484;28;20051;-71
2023/03/13 09:08:31;;;;;;;3.58;1.90;;;;;;;9.25;100.00;94826.06;5089347;28;20043;-72
2023/03/13 09:11:03;;;;;;;1.38;0.90;;;;;;;9.47;100.00;94825.59;5092323;28;20107;-73
2023/03/13 09:13:30;;;;;;;2.05;0.93;;;;;;;9.87;100.00;94824.34;5085932;28;20119;-72
2023/03/13 09:16:01;;;;;;;0.85;0.70;;;;;;;10.28;100.00;94823.03;5089242;28;20044;-73
2023/03/13 09:18:28;;;;;;;0.55;0.55;;;;;;;10.69;100.00;94814.59;5089506;28;20040;-73
2023/03/13 09:20:53;;;;;;;1.98;1.10;;;;;;;10.68;100.00;94820.16;5087158;28;20051;-74
2023/03/13 09:23:20;;;;;;;2.22;0.70;;;;;;;10.55;100.00;94817.16;5086796;28;20414;-75
2023/03/13 09:25:47;;;;;;;1.27;0.82;;;;;;;10.52;100.00;94817.75;5092162;28;20040;-77
2023/03/13 09:28:12;;;;;;;2.00;1.00;;;;;;;10.36;100.00;94825.06;5090020;28;20115;-73
2023/03/13 09:30:38;;;;;;;1.42;0.80;;;;;;;10.33;100.00;94814.28;5089799;28;20036;-73
2023/03/13 09:33:03;;;;;;;1.60;0.80;;;;;;;10.50;100.00;94804.09;5086828;28;20092;-73
2023/03/13 09:35:29;;;;;;;0.88;0.77;;;;;;;10.71;100.00;94809.06;5085335;28;20036;-75
2023/03/13 09:37:55;;;;;;;1.17;0.77;;;;;;;10.94;100.00;94806.59;5085513;28;20036;-76
2023/03/13 09:40:23;;;;;;;1.63;0.73;;;;;;;11.16;100.00;94793.59;5089333;28;20068;-76
2023/03/13 09:42:52;;;;;;;0.60;0.60;;;;;;;11.15;100.00;94792.03;5087743;28;20078;-77
2023/03/13 09:45:31;;;;;;;1.77;0.77;;;;;;;11.27;94.72;94789.69;5097361;28;20049;-75
2023/03/13 09:48:07;;;;;;;1.48;0.80;;;;;;;11.39;94.58;94791.06;5101564;28;20156;-74
2023/03/13 09:50:45;;;;;;;1.48;0.70;;;;;;;11.60;92.44;94792.25;5081018;28;20043;-73
2023/03/13 09:53:23;;;;;;;1.35;0.85;;;;;;;11.72;89.39;94783.88;5089149;28;20409;-74
2023/03/13 09:55:51;;;;;;;0.65;0.65;;;;;;;12.06;86.59;94787.16;5091748;28;20047;-74
2023/03/13 09:58:20;;;;;;;2.70;0.80;;;;;;;12.24;87.76;94778.34;5091201;28;20047;-73
2023/03/13 10:01:08;;;;;;;1.55;0.82;;;;;;;12.72;90.43;94781.50;5084857;28;20048;-73
2023/03/13 10:03:54;;;;;;;1.42;0.82;;;;;;;13.06;78.43;94774.84;5077984;28;20047;-73
2023/03/13 10:06:22;;;;;;;1.83;0.85;;;;;;;12.90;78.40;94772.63;5088709;28;20036;-73
2023/03/13 10:08:47;;;;;;;1.77;1.05;;;;;;;13.26;87.31;94773.56;5089994;28;20047;-73
2023/03/13 10:11:44;;;;;;;1.10;1.00;;;;;;;13.27;77.65;94765.31;5088253;28;20040;-73
2023/03/13 10:14:27;;;;;;;1.05;0.77;;;;;;;13.84;76.93;94761.19;5076959;28;20056;-74
2023/03/13 10:17:00;;;;;;;1.85;0.90;;;;;;;14.05;73.08;94756.13;5091337;28;20040;-73
2023/03/13 10:19:32;;;;;;;1.10;0.80;;;;;;;14.57;69.21;94736.81;5091163;28;20115;-73
2023/03/13 10:22:01;;;;;;;0.75;0.50;;;;;;;15.03;62.60;94743.28;5084671;28;20058;-74
2023/03/13 10:24:41;;;;;;;1.00;0.70;;;;;;;15.27;66.78;94749.13;5092401;28;20040;-74
2023/03/13 10:27:12;;;;;;;0.50;0.50;;;;;;;14.86;66.01;94746.75;5091598;28;20036;-74
2023/03/13 10:29:38;;;;;;;1.75;0.95;;;;;;;14.57;65.32;94739.47;5088821;28;20049;-73
2023/03/13 10:32:07;;;;;;;1.13;0.70;;;;;;;14.85;64.00;94744.41;5085884;28;20036;-74
2023/03/13 10:34:59;;;;;;;0.82;0.75;;;;;;;15.74;61.58;94747.19;5081905;28;20110;-76
2023/03/13 10:37:31;;;;;;;0.73;0.70;;;;;;;15.58;61.02;94735.59;5090678;28;20044;-74
2023/03/13 10:40:21;;;;;;;0.73;0.68;;;;;;;15.45;58.24;94734.72;5089566;28;20040;-74
2023/03/13 10:42:47;;;;;;;0.65;0.65;;;;;;;15.51;59.90;94737.97;5082291;28;20496;-75
2023/03/13 10:45:19;;;;;;;0.80;0.63;;;;;;;15.23;61.18;94722.50;5081969;28;20041;-73
2023/03/13 10:47:55;;;;;;;0.75;0.70;;;;;;;15.56;60.66;94720.00;5088950;28;20506;-75
2023/03/13 10:50:24;;;;;;;0.60;0.60;;;;;;;15.46;57.36;94717.72;5090154;28;20123;-75
2023/03/13 10:52:53;;;;;;;0.60;0.60;;;;;;;15.90;58.58;94710.34;5087706;28;20090;-76
2023/03/13 10:55:24;;;;;;;1.13;0.80;;;;;;;16.00;55.44;94716.34;5088421;28;20121;-75
2023/03/13 10:58:01;;;;;;;0.68;0.68;;;;;;;15.92;56.02;94704.69;5090431;28;20035;-75
2023/03/13 11:00:33;;;;;;;0.60;0.60;;;;;;;16.25;54.58;94706.66;5089717;28;20514;-74
2023/03/13 11:02:58;;;;;;;2.42;1.30;;;;;;;16.92;57.36;94696.84;5092426;28;20047;-73
2023/03/13 11:05:24;;;;;;;0.60;0.60;;;;;;;16.98;53.48;94702.69;5087698;28;20399;-74
2023/03/13 11:07:50;;;;;;;1.63;0.70;;;;;;;16.86;56.67;94686.69;5092070;28;20411;-72
2023/03/13 11:10:31;;;;;;;0.50;0.50;;;;;;;17.68;54.57;94688.53;5089957;28;20071;-71
2023/03/13 11:12:57;;;;;;;1.17;0.70;;;;;;;18.34;49.26;94675.97;5085804;28;20033;-73
2023/03/13 11:15:28;;;;;;;1.17;0.90;;;;;;;18.46;47.01;94694.59;5085874;28;20043;-71
2023/03/13 11:18:11;;;;;;;1.08;0.70;;;;;;;18.53;46.21;94662.81;5090438;28;20036;-72
2023/03/13 11:20:39;;;;;;;1.00;0.50;;;;;;;18.69;47.56;94675.38;5104108;28;20040;-72
2023/03/13 11:23:13;;;;;;;1.33;0.70;;;;;;;19.02;48.80;94676.97;5082194;28;20547;-73
2023/03/13 11:25:48;;;;;;;1.67;0.80;;;;;;;19.41;44.24;94677.16;5089945;28;20032;-74
2023/03/13 11:28:51;;;;;;;1.23;0.82;;;;;;;18.94;47.32;94669.94;5089137;28;20063;-72
2023/03/13 11:31:23;;;;;;;0.80;0.60;;;;;;;19.19;44.47;94671.34;5083164;28;20060;-73
2023/03/13 11:34:05;;;;;;;1.75;0.88;;;;;;;19.51;45.23;94649.94;5091371;28;20039;-74
2023/03/13 11:36:38;;;;;;;1.77;0.93;;;;;;;21.18;41.90;94665.38;5084175;28;20076;-73